createdAt,value
2022-12-16T00:00:07.480Z,19.70
2022-12-16T00:02:34.034Z,19.10
2022-12-16T00:05:00.511Z,18.85
2022-12-16T00:07:26.896Z,18.45
2022-12-16T00:09:53.306Z,19.05
2022-12-16T00:12:21.124Z,19.45
2022-12-16T00:14:47.494Z,19.98
2022-12-16T00:17:13.900Z,19.65
2022-12-16T00:19:40.329Z,19.35
2022-12-16T00:22:06.760Z,19.77
2022-12-16T00:24:33.202Z,20.15
2022-12-16T00:26:59.693Z,19.10
2022-12-16T00:29:26.128Z,19.98
2022-12-16T00:31:52.564Z,20.40
2022-12-16T00:34:20.853Z,19.75
2022-12-16T00:36:47.544Z,20.58
2022-12-16T00:39:14.141Z,19.17
2022-12-16T00:41:40.599Z,20.15
2022-12-16T00:44:07.011Z,20.17
2022-12-16T00:46:33.458Z,18.67
2022-12-16T00:48:59.941Z,19.00
2022-12-16T00:51:26.466Z,19.75
2022-12-16T00:53:52.850Z,19.15
2022-12-16T00:56:20.594Z,18.98
2022-12-16T00:58:47.017Z,19.60
2022-12-16T01:01:13.585Z,18.67
2022-12-16T01:03:40.773Z,18.88
2022-12-16T01:06:08.586Z,18.73
2022-12-16T01:08:35.040Z,18.80
2022-12-16T01:11:01.468Z,19.33
2022-12-16T01:13:27.902Z,18.73
2022-12-16T01:15:54.664Z,18.98
2022-12-16T01:18:21.514Z,18.88
2022-12-16T01:20:47.984Z,18.58
2022-12-16T01:23:14.422Z,18.73
2022-12-16T01:25:40.842Z,19.05
2022-12-16T01:28:07.274Z,18.70
2022-12-16T01:30:34.849Z,19.08
2022-12-16T01:33:01.236Z,18.88
2022-12-16T01:35:52.562Z,19.02
2022-12-16T01:38:14.067Z,18.15
2022-12-16T01:40:40.490Z,17.63
2022-12-16T01:43:13.931Z,19.38
2022-12-16T01:45:40.516Z,18.92
2022-12-16T01:48:25.915Z,18.73
2022-12-16T01:50:55.365Z,18.85
2022-12-16T01:53:21.827Z,17.73
2022-12-16T01:55:50.341Z,17.98
2022-12-16T01:58:22.516Z,17.30
2022-12-16T02:00:49.190Z,17.35
2022-12-16T02:03:15.912Z,17.27
2022-12-16T02:05:43.091Z,18.25
2022-12-16T02:08:09.501Z,17.10
2022-12-16T02:10:45.010Z,18.20
2022-12-16T02:13:31.731Z,18.00
2022-12-16T02:16:17.431Z,17.35
2022-12-16T02:18:47.320Z,17.48
2022-12-16T02:21:29.202Z,17.33
2022-12-16T02:23:55.620Z,16.73
2022-12-16T02:26:40.853Z,17.73
2022-12-16T02:29:25.763Z,17.10
2022-12-16T02:32:00.742Z,16.60
2022-12-16T02:34:27.141Z,18.27
2022-12-16T02:37:13.632Z,17.42
2022-12-16T02:39:46.791Z,18.45
2022-12-16T02:42:13.140Z,17.98
2022-12-16T02:44:54.413Z,18.40
2022-12-16T02:47:20.835Z,18.95
2022-12-16T02:49:48.620Z,19.45
2022-12-16T02:52:15.926Z,19.85
2022-12-16T02:54:43.164Z,19.58
2022-12-16T02:57:28.021Z,18.73
2022-12-16T03:00:02.462Z,19.23
2022-12-16T03:02:37.121Z,19.67
2022-12-16T03:05:16.815Z,19.08
2022-12-16T03:07:44.232Z,18.40
2022-12-16T03:10:14.220Z,18.23
2022-12-16T03:12:42.067Z,19.65
2022-12-16T03:15:10.352Z,19.50
2022-12-16T03:17:37.275Z,18.95
2022-12-16T03:20:08.630Z,17.85
2022-12-16T03:22:37.979Z,18.25
2022-12-16T03:25:05.998Z,17.30
2022-12-16T03:27:46.244Z,18.70
2022-12-16T03:30:31.861Z,17.88
2022-12-16T03:32:58.360Z,18.23
2022-12-16T03:35:24.812Z,18.27
2022-12-16T03:37:53.027Z,17.48
2022-12-16T03:40:19.954Z,17.35
2022-12-16T03:42:46.568Z,17.48
2022-12-16T03:45:16.925Z,17.65
2022-12-16T03:47:48.215Z,17.60
2022-12-16T03:50:14.643Z,18.30
2022-12-16T03:52:41.108Z,17.30
2022-12-16T03:55:07.674Z,17.20
2022-12-16T03:57:34.180Z,16.58
2022-12-16T04:00:01.184Z,17.23
2022-12-16T04:02:27.772Z,18.73
2022-12-16T04:04:54.350Z,17.70
2022-12-16T04:07:20.806Z,17.95
2022-12-16T04:09:48.295Z,18.38
2022-12-16T04:12:33.435Z,16.52
2022-12-16T04:15:18.550Z,18.55
2022-12-16T04:18:03.592Z,17.52
2022-12-16T04:20:50.625Z,17.52
2022-12-16T04:23:36.116Z,17.05
2022-12-16T04:26:02.840Z,17.67
2022-12-16T04:28:29.341Z,17.40
2022-12-16T04:30:56.141Z,16.85
2022-12-16T04:33:41.556Z,17.35
2022-12-16T04:36:27.016Z,17.08
2022-12-16T04:39:11.936Z,17.23
2022-12-16T04:41:57.118Z,16.75
2022-12-16T04:44:42.418Z,16.55
2022-12-16T04:47:27.343Z,16.10
2022-12-16T04:50:12.142Z,17.25
2022-12-16T04:52:57.036Z,15.60
2022-12-16T04:55:41.902Z,15.45
2022-12-16T04:58:26.912Z,15.82
2022-12-16T05:01:11.847Z,15.38
2022-12-16T05:03:56.645Z,15.63
2022-12-16T05:06:41.802Z,14.60
2022-12-16T05:09:27.121Z,14.10
2022-12-16T05:12:11.946Z,14.52
2022-12-16T05:14:57.025Z,14.13
2022-12-16T05:17:41.884Z,13.85
2022-12-16T05:20:40.971Z,13.85
2022-12-16T05:23:26.036Z,12.93
2022-12-16T05:26:10.782Z,13.85
2022-12-16T05:28:55.566Z,13.32
2022-12-16T05:31:40.544Z,12.57
2022-12-16T05:34:26.976Z,13.68
2022-12-16T05:37:12.070Z,13.00
2022-12-16T05:39:57.181Z,12.68
2022-12-16T05:42:42.192Z,12.88
2022-12-16T05:45:27.668Z,13.38
2022-12-16T05:48:12.536Z,12.25
2022-12-16T05:50:57.551Z,13.20
2022-12-16T05:53:42.356Z,11.90
2022-12-16T05:56:27.584Z,11.75
2022-12-16T05:59:12.347Z,12.65
2022-12-16T06:01:57.422Z,12.27
2022-12-16T06:04:42.892Z,12.90
2022-12-16T06:07:27.940Z,12.88
2022-12-16T06:10:13.108Z,12.93
2022-12-16T06:12:57.892Z,13.45
2022-12-16T06:15:43.178Z,12.70
2022-12-16T06:18:28.003Z,13.48
2022-12-16T06:21:32.764Z,12.80
2022-12-16T06:24:17.791Z,13.00
2022-12-16T06:27:02.670Z,13.02
2022-12-16T06:29:47.540Z,12.98
2022-12-16T06:32:32.513Z,12.20
2022-12-16T06:35:17.802Z,13.27
2022-12-16T06:38:05.794Z,12.55
2022-12-16T06:40:50.716Z,12.43
2022-12-16T06:43:36.225Z,12.23
2022-12-16T06:46:21.406Z,12.13
2022-12-16T06:49:06.515Z,12.40
2022-12-16T06:51:51.490Z,13.15
2022-12-16T06:54:36.313Z,11.95
2022-12-16T06:57:21.524Z,12.70
2022-12-16T07:00:06.393Z,12.32
2022-12-16T07:02:51.478Z,12.05
2022-12-16T07:05:36.715Z,12.23
2022-12-16T07:08:21.693Z,11.95
2022-12-16T07:11:16.118Z,11.82
2022-12-16T07:14:01.831Z,13.10
2022-12-16T07:16:46.883Z,12.85
2022-12-16T07:19:32.075Z,12.32
2022-12-16T07:22:16.978Z,12.40
2022-12-16T07:25:01.992Z,12.07
2022-12-16T07:27:46.858Z,13.15
2022-12-16T07:30:31.721Z,14.20
2022-12-16T07:33:16.563Z,14.65
2022-12-16T07:36:02.189Z,14.93
2022-12-16T07:38:54.994Z,15.23
2022-12-16T07:44:25.012Z,16.13
2022-12-16T07:47:10.002Z,16.90
2022-12-16T07:49:55.434Z,17.17
2022-12-16T07:52:40.759Z,16.65
2022-12-16T07:55:25.670Z,17.88
2022-12-16T07:58:10.679Z,18.10
2022-12-16T08:00:56.236Z,17.67
2022-12-16T08:03:41.888Z,18.35
2022-12-16T08:06:27.202Z,18.70
2022-12-16T08:09:12.461Z,18.02
2022-12-16T08:11:57.504Z,18.10
2022-12-16T08:14:42.451Z,19.50
2022-12-16T08:17:29.290Z,17.95
2022-12-16T08:20:14.202Z,18.83
2022-12-16T08:22:59.264Z,19.08
2022-12-16T08:25:44.493Z,19.23
2022-12-16T08:28:29.561Z,19.55
2022-12-16T08:31:14.546Z,20.17
2022-12-16T08:33:59.571Z,19.52
2022-12-16T08:36:44.717Z,20.05
2022-12-16T08:39:29.643Z,19.33
2022-12-16T08:42:14.472Z,18.40
2022-12-16T08:44:59.336Z,18.90
2022-12-16T08:47:44.458Z,17.50
2022-12-16T08:50:29.520Z,18.73
2022-12-16T08:53:14.556Z,18.77
2022-12-16T08:56:01.253Z,17.95
2022-12-16T08:58:46.134Z,17.02
2022-12-16T09:01:31.168Z,17.73
2022-12-16T09:04:16.007Z,18.90
2022-12-16T09:07:01.421Z,17.77
2022-12-16T09:09:46.521Z,17.67
2022-12-16T09:12:31.434Z,17.48
2022-12-16T09:15:16.315Z,17.70
2022-12-16T09:18:01.313Z,16.83
2022-12-16T09:20:46.143Z,16.88
2022-12-16T09:23:31.655Z,16.08
2022-12-16T09:26:17.221Z,16.65
2022-12-16T09:29:02.340Z,16.42
2022-12-16T09:31:47.419Z,16.92
2022-12-16T09:34:32.391Z,17.48
2022-12-16T09:37:17.365Z,16.02
2022-12-16T09:40:02.508Z,16.17
2022-12-16T09:42:57.195Z,15.75
2022-12-16T09:45:42.401Z,15.48
2022-12-16T09:48:39.875Z,16.25
2022-12-16T09:51:25.486Z,15.70
2022-12-16T09:54:10.699Z,16.88
2022-12-16T09:56:55.855Z,16.40
2022-12-16T09:59:46.196Z,15.23
2022-12-16T10:02:33.228Z,15.98
2022-12-16T10:05:18.841Z,15.60
2022-12-16T10:08:15.629Z,16.05
2022-12-16T10:11:33.466Z,16.55
2022-12-16T10:14:28.169Z,15.68
2022-12-16T10:17:24.236Z,16.85
2022-12-16T10:20:12.346Z,18.23
2022-12-16T10:23:12.844Z,17.88
2022-12-16T10:26:00.169Z,17.52
2022-12-16T10:28:48.207Z,16.63
2022-12-16T10:31:35.974Z,17.13
2022-12-16T10:34:21.757Z,18.83
2022-12-16T10:37:11.751Z,18.02
2022-12-16T10:40:01.557Z,19.58
2022-12-16T10:42:46.472Z,18.23
2022-12-16T10:45:41.266Z,18.17
2022-12-16T10:48:29.140Z,17.70
2022-12-16T10:51:14.270Z,18.10
2022-12-16T10:53:59.145Z,19.35
2022-12-16T10:56:44.004Z,18.77
2022-12-16T10:59:30.116Z,18.38
2022-12-16T11:02:15.090Z,19.52
2022-12-16T11:05:00.266Z,19.10
2022-12-16T11:07:46.428Z,19.48
2022-12-16T11:10:50.393Z,19.95
2022-12-16T11:13:40.619Z,18.45
2022-12-16T11:16:27.654Z,18.30
2022-12-16T11:19:12.851Z,19.02
2022-12-16T11:22:17.508Z,17.10
2022-12-16T11:25:02.374Z,18.45
2022-12-16T11:27:47.612Z,18.10
2022-12-16T11:30:37.012Z,18.77
2022-12-16T11:33:42.815Z,17.98
2022-12-16T11:36:41.882Z,17.80
2022-12-16T11:39:33.238Z,17.30
2022-12-16T11:42:19.228Z,18.98
2022-12-16T11:45:09.015Z,18.23
2022-12-16T11:48:04.452Z,18.42
2022-12-16T11:50:51.010Z,17.73
2022-12-16T11:53:42.591Z,17.70
2022-12-16T11:56:31.687Z,18.42
2022-12-16T11:59:23.796Z,18.25
2022-12-16T12:02:12.302Z,18.45
2022-12-16T12:04:57.453Z,16.90
2022-12-16T12:07:48.782Z,17.75
2022-12-16T12:10:40.175Z,17.45
2022-12-16T12:13:56.135Z,17.77
2022-12-16T12:16:55.330Z,17.85
2022-12-16T12:19:47.706Z,18.48
2022-12-16T12:22:41.717Z,18.65
2022-12-16T12:25:37.135Z,18.23
2022-12-16T12:28:28.203Z,19.58
2022-12-16T12:31:48.752Z,17.83
2022-12-16T12:34:43.564Z,17.52
2022-12-16T12:37:35.626Z,19.10
2022-12-16T12:40:40.710Z,18.00
2022-12-16T12:43:33.616Z,17.27
2022-12-16T12:46:34.611Z,17.52
2022-12-16T12:49:22.824Z,18.48
2022-12-16T12:52:14.425Z,17.00
2022-12-16T12:55:10.955Z,16.90
2022-12-16T12:57:57.891Z,18.33
2022-12-16T13:00:44.276Z,18.40
2022-12-16T13:03:29.556Z,18.65
2022-12-16T13:06:14.835Z,17.23
2022-12-16T13:09:02.271Z,17.55
2022-12-16T13:11:47.358Z,17.85
2022-12-16T13:14:47.481Z,17.67
2022-12-16T13:17:32.309Z,17.45
2022-12-16T13:20:17.461Z,17.52
2022-12-16T13:23:03.469Z,17.80
2022-12-16T13:26:08.856Z,17.15
2022-12-16T13:28:58.333Z,18.08
2022-12-16T13:31:43.764Z,17.77
2022-12-16T13:34:35.236Z,17.80
2022-12-16T13:37:28.268Z,18.50
2022-12-16T13:40:20.298Z,19.23
2022-12-16T13:43:05.115Z,17.88
2022-12-16T13:45:52.989Z,17.52
2022-12-16T13:48:49.940Z,19.05
2022-12-16T13:51:54.170Z,18.30
2022-12-16T13:54:40.999Z,19.48
2022-12-16T13:57:29.862Z,17.98
2022-12-16T14:00:14.776Z,18.30
2022-12-16T14:03:01.268Z,18.00
2022-12-16T14:05:47.879Z,18.67
2022-12-16T14:08:36.898Z,17.63
2022-12-16T14:11:23.445Z,17.25
2022-12-16T14:14:37.714Z,18.15
2022-12-16T14:17:25.687Z,17.85
2022-12-16T14:20:20.647Z,17.80
2022-12-16T14:23:17.920Z,18.33
2022-12-16T14:26:15.069Z,19.42
2022-12-16T14:29:00.740Z,18.15
2022-12-16T14:31:53.418Z,17.83
2022-12-16T14:37:31.243Z,18.42
2022-12-16T14:40:16.131Z,18.35
2022-12-16T14:43:01.356Z,18.88
2022-12-16T14:45:51.372Z,18.30
2022-12-16T14:48:43.175Z,18.52
2022-12-16T14:51:36.924Z,18.10
2022-12-16T14:54:40.742Z,18.33
2022-12-16T14:57:38.109Z,18.38
2022-12-16T15:00:34.505Z,17.63
2022-12-16T15:03:22.487Z,17.45
2022-12-16T15:06:08.022Z,18.02
2022-12-16T15:08:56.405Z,16.73
2022-12-16T15:11:42.526Z,17.85
2022-12-16T15:14:30.548Z,16.83
2022-12-16T15:17:16.852Z,17.60
2022-12-16T15:20:05.775Z,18.20
2022-12-16T15:22:51.118Z,16.98
2022-12-16T15:25:45.089Z,17.45
2022-12-16T15:28:55.419Z,16.95
2022-12-16T15:31:48.454Z,17.67
2022-12-16T15:34:39.359Z,18.02
2022-12-16T15:37:38.531Z,17.08
2022-12-16T15:40:27.996Z,16.30
2022-12-16T15:43:25.030Z,16.60
2022-12-16T15:46:10.624Z,16.70
2022-12-16T15:48:55.805Z,17.23
2022-12-16T15:51:59.877Z,16.55
2022-12-16T15:54:47.065Z,16.25
2022-12-16T15:57:51.609Z,17.05
2022-12-16T16:00:41.038Z,17.17
2022-12-16T16:03:37.200Z,17.70
2022-12-16T16:06:22.575Z,17.27
2022-12-16T16:09:10.709Z,17.60
2022-12-16T16:11:55.562Z,17.70
2022-12-16T16:14:40.301Z,18.35
2022-12-16T16:17:43.508Z,18.17
2022-12-16T16:20:36.139Z,18.25
2022-12-16T16:23:21.364Z,18.40
2022-12-16T16:26:06.898Z,18.65
2022-12-16T16:28:52.030Z,17.98
2022-12-16T16:31:37.029Z,18.17
2022-12-16T16:34:22.088Z,18.38
2022-12-16T16:37:10.532Z,18.10
2022-12-16T16:39:56.054Z,17.83
2022-12-16T16:42:41.523Z,18.25
2022-12-16T16:45:26.899Z,18.85
2022-12-16T16:48:14.926Z,18.52
2022-12-16T16:50:59.855Z,18.15
2022-12-16T16:53:44.580Z,18.33
2022-12-16T16:56:30.042Z,17.88
2022-12-16T16:59:15.085Z,17.50
2022-12-16T17:02:00.235Z,19.15
2022-12-16T17:04:45.485Z,17.70
2022-12-16T17:07:32.200Z,18.17
2022-12-16T17:10:17.198Z,17.15
2022-12-16T17:13:04.696Z,17.25
2022-12-16T17:15:51.612Z,19.27
2022-12-16T17:18:41.791Z,18.10
2022-12-16T17:24:14.572Z,17.92
2022-12-16T17:27:03.353Z,17.42
2022-12-16T17:29:56.102Z,17.88
2022-12-16T17:32:41.092Z,17.35
2022-12-16T17:35:27.191Z,17.52
2022-12-16T17:38:12.169Z,17.77
2022-12-16T17:40:56.953Z,17.40
2022-12-16T17:43:41.841Z,17.42
2022-12-16T17:46:29.078Z,17.58
2022-12-16T17:49:14.721Z,16.90
2022-12-16T17:52:00.157Z,16.75
2022-12-16T17:54:45.051Z,16.45
2022-12-16T17:57:30.339Z,16.50
2022-12-16T18:00:15.407Z,17.50
2022-12-16T18:03:01.043Z,17.30
2022-12-16T18:05:46.654Z,18.13
2022-12-16T18:08:31.436Z,17.80
2022-12-16T18:11:16.683Z,17.63
2022-12-16T18:14:01.613Z,17.92
2022-12-16T18:16:47.125Z,18.77
2022-12-16T18:19:33.434Z,17.52
2022-12-16T18:22:18.745Z,18.40
2022-12-16T18:25:04.011Z,17.80
2022-12-16T18:27:48.782Z,17.23
2022-12-16T18:30:34.137Z,16.92
2022-12-16T18:33:19.239Z,16.88
2022-12-16T18:36:04.333Z,18.20
2022-12-16T18:38:49.617Z,18.38
2022-12-16T18:41:36.149Z,17.48
2022-12-16T18:44:21.633Z,17.23
2022-12-16T18:47:06.543Z,18.52
2022-12-16T18:49:51.611Z,18.58
2022-12-16T18:52:36.708Z,18.23
2022-12-16T18:55:21.975Z,17.05
2022-12-16T18:58:21.146Z,17.52
2022-12-16T19:01:24.575Z,18.13
2022-12-16T19:04:29.731Z,18.02
2022-12-16T19:07:14.534Z,18.13
2022-12-16T19:09:59.343Z,17.83
2022-12-16T19:12:44.278Z,17.60
2022-12-16T19:15:29.111Z,18.08
2022-12-16T19:18:14.417Z,17.38
2022-12-16T19:20:59.205Z,17.60
2022-12-16T19:23:44.114Z,17.38
2022-12-16T19:26:29.491Z,18.35
2022-12-16T19:29:31.088Z,17.40
2022-12-16T19:32:16.104Z,17.02
2022-12-16T19:35:01.017Z,18.42
2022-12-16T19:37:46.218Z,18.02
2022-12-16T19:40:31.203Z,18.63
2022-12-16T19:43:16.096Z,17.20
2022-12-16T19:46:00.987Z,17.90
2022-12-16T19:48:46.082Z,18.42
2022-12-16T19:51:31.344Z,18.33
2022-12-16T19:54:16.393Z,19.23
2022-12-16T19:57:01.279Z,19.60
2022-12-16T19:59:46.178Z,19.90
2022-12-16T20:02:31.293Z,21.00
2022-12-16T20:05:16.694Z,19.50
2022-12-16T20:08:01.743Z,20.08
2022-12-16T20:10:46.693Z,19.30
2022-12-16T20:13:32.169Z,19.55
2022-12-16T20:16:20.768Z,19.30
2022-12-16T20:19:05.700Z,19.95
2022-12-16T20:21:51.587Z,20.25
2022-12-16T20:24:42.894Z,20.00
2022-12-16T20:27:32.770Z,19.35
2022-12-16T20:30:17.797Z,20.17
2022-12-16T20:33:05.235Z,21.08
2022-12-16T20:35:50.281Z,20.13
2022-12-16T20:38:35.294Z,20.85
2022-12-16T20:41:21.365Z,21.23
2022-12-16T20:44:06.962Z,20.67
2022-12-16T20:46:52.172Z,21.55
2022-12-16T20:49:37.290Z,20.63
2022-12-16T20:52:22.473Z,19.90
2022-12-16T20:55:07.374Z,21.42
2022-12-16T20:57:52.613Z,21.35
2022-12-16T21:00:41.539Z,21.05
2022-12-16T21:03:28.020Z,21.05
2022-12-16T21:06:13.401Z,21.42
2022-12-16T21:08:58.557Z,21.30
2022-12-16T21:11:43.591Z,20.55
2022-12-16T21:14:28.651Z,21.08
2022-12-16T21:17:13.774Z,19.85
2022-12-16T21:19:58.570Z,20.75
2022-12-16T21:22:43.485Z,20.83
2022-12-16T21:25:28.579Z,21.92
2022-12-16T21:28:16.309Z,21.20
2022-12-16T21:31:01.532Z,22.17
2022-12-16T21:33:47.142Z,21.85
2022-12-16T21:36:32.551Z,21.55
2022-12-16T21:39:17.450Z,21.38
2022-12-16T21:42:02.551Z,20.83
2022-12-16T21:44:47.758Z,20.42
2022-12-16T21:47:32.597Z,20.50
2022-12-16T21:50:17.424Z,21.98
2022-12-16T21:53:05.614Z,21.33
2022-12-16T21:55:50.440Z,20.80
2022-12-16T21:58:35.566Z,21.00
2022-12-16T22:01:20.429Z,20.88
2022-12-16T22:04:05.554Z,20.73
2022-12-16T22:06:50.775Z,19.52
2022-12-16T22:09:36.817Z,21.05
2022-12-16T22:12:22.306Z,19.75
2022-12-16T22:15:07.166Z,20.90
2022-12-16T22:17:58.008Z,19.48
2022-12-16T22:20:43.941Z,20.17
2022-12-16T22:23:28.918Z,19.88
2022-12-16T22:26:14.783Z,19.15
2022-12-16T22:28:59.595Z,20.13
2022-12-16T22:31:44.731Z,20.30
2022-12-16T22:34:29.656Z,19.35
2022-12-16T22:37:14.543Z,19.58
2022-12-16T22:39:59.398Z,20.15
2022-12-16T22:42:44.193Z,20.10
2022-12-16T22:45:29.313Z,19.88
2022-12-16T22:48:14.804Z,20.23
2022-12-16T22:50:59.993Z,20.30
2022-12-16T22:53:45.697Z,19.58
2022-12-16T22:56:30.779Z,19.45
2022-12-16T22:59:16.024Z,19.27
2022-12-16T23:02:01.213Z,19.20
2022-12-16T23:04:46.381Z,20.52
2022-12-16T23:07:31.532Z,19.75
2022-12-16T23:10:16.316Z,19.65
2022-12-16T23:13:01.495Z,18.95
2022-12-16T23:15:46.440Z,18.98
2022-12-16T23:18:31.656Z,18.58
2022-12-16T23:21:16.740Z,18.20
2022-12-16T23:24:01.957Z,20.02
2022-12-16T23:26:47.056Z,19.48
2022-12-16T23:29:32.229Z,19.92
2022-12-16T23:32:17.141Z,18.80
2022-12-16T23:35:02.104Z,18.30
2022-12-16T23:37:46.917Z,19.08
2022-12-16T23:40:31.769Z,20.13
2022-12-16T23:43:16.853Z,19.02
2022-12-16T23:46:02.290Z,19.48
2022-12-16T23:48:47.501Z,19.45
2022-12-16T23:51:32.412Z,20.30
2022-12-16T23:54:17.347Z,18.15
2022-12-16T23:57:02.286Z,18.38
2022-12-16T23:59:47.346Z,18.58
